createdAt,value
2023-09-08T00:00:12.507Z,56.84
2023-09-08T00:05:17.707Z,56.53
2023-09-08T00:10:20.639Z,56.64
2023-09-08T00:15:24.948Z,56.85
2023-09-08T00:20:27.959Z,56.59
2023-09-08T00:25:31.011Z,56.42
2023-09-08T00:30:37.718Z,57.41
2023-09-08T00:35:40.810Z,56.64
2023-09-08T00:40:43.907Z,57.42
2023-09-08T00:45:49.178Z,56.74
2023-09-08T00:50:52.282Z,56.93
2023-09-08T00:55:56.747Z,57.01
2023-09-08T01:01:01.229Z,57.38
2023-09-08T01:06:05.712Z,57.61
2023-09-08T01:11:09.203Z,56.82
2023-09-08T01:16:13.493Z,56.38
2023-09-08T01:21:42.452Z,57.02
2023-09-08T01:26:47.689Z,56.55
2023-09-08T01:31:51.296Z,55.94
2023-09-08T01:36:55.075Z,56.20
2023-09-08T01:41:59.645Z,55.67
2023-09-08T01:47:02.647Z,56.81
2023-09-08T01:52:06.387Z,56.68
2023-09-08T01:57:10.794Z,56.97
2023-09-08T02:02:13.830Z,57.16
2023-09-08T02:07:16.768Z,57.32
2023-09-08T02:12:21.143Z,57.47
2023-09-08T02:17:24.912Z,57.50
2023-09-08T02:22:27.967Z,57.56
2023-09-08T02:27:32.562Z,57.72
2023-09-08T02:32:35.756Z,57.43
2023-09-08T02:37:38.806Z,57.62
2023-09-08T02:42:43.480Z,57.51
2023-09-08T02:47:47.847Z,57.62
2023-09-08T02:52:51.793Z,57.47
2023-09-08T02:57:56.545Z,57.44
2023-09-08T03:02:59.537Z,57.42
2023-09-08T03:08:03.340Z,57.35
2023-09-08T03:13:08.183Z,57.30
2023-09-08T03:18:11.185Z,57.47
2023-09-08T03:23:14.097Z,57.25
2023-09-08T03:28:18.589Z,57.21
2023-09-08T03:33:21.789Z,56.31
2023-09-08T03:38:25.911Z,55.91
2023-09-08T03:43:31.621Z,56.58
2023-09-08T03:48:34.582Z,55.68
2023-09-08T03:53:38.324Z,55.91
2023-09-08T03:58:43.227Z,56.17
2023-09-08T04:03:46.317Z,55.61
2023-09-08T04:08:49.456Z,56.06
2023-09-08T04:13:54.385Z,56.21
2023-09-08T04:18:57.706Z,56.24
2023-09-08T04:24:00.730Z,55.10
2023-09-08T04:29:05.418Z,55.73
2023-09-08T04:34:08.455Z,55.67
2023-09-08T04:39:12.673Z,55.12
2023-09-08T04:44:17.337Z,55.32
2023-09-08T04:49:20.444Z,55.75
2023-09-08T04:54:23.588Z,55.74
2023-09-08T04:59:28.055Z,55.85
2023-09-08T05:04:31.243Z,55.60
2023-09-08T05:09:35.494Z,55.92
2023-09-08T05:14:40.160Z,56.24
2023-09-08T05:19:43.431Z,56.18
2023-09-08T05:24:46.487Z,55.95
2023-09-08T05:29:52.445Z,56.09
2023-09-08T05:34:56.405Z,56.17
2023-09-08T05:39:59.993Z,55.99
2023-09-08T05:45:04.829Z,56.79
2023-09-08T05:50:08.895Z,57.96
2023-09-08T05:55:11.981Z,58.54
2023-09-08T06:00:17.606Z,59.24
2023-09-08T06:05:25.292Z,58.50
2023-09-08T06:10:28.252Z,59.39
2023-09-08T06:15:32.833Z,60.39
2023-09-08T06:20:36.492Z,61.02
2023-09-08T06:25:39.628Z,61.04
2023-09-08T06:30:44.612Z,61.52
2023-09-08T06:35:48.356Z,61.25
2023-09-08T06:40:54.131Z,61.67
2023-09-08T06:45:59.243Z,62.41
2023-09-08T06:51:02.357Z,62.36
2023-09-08T06:56:05.882Z,62.44
2023-09-08T07:01:11.994Z,62.48
2023-09-08T07:06:15.512Z,62.86
2023-09-08T07:11:18.708Z,63.06
2023-09-08T07:16:24.726Z,62.95
2023-09-08T07:21:27.949Z,63.03
2023-09-08T07:26:31.538Z,62.99
2023-09-08T07:31:36.441Z,62.38
2023-09-08T07:36:39.502Z,62.16
2023-09-08T07:41:42.708Z,63.00
2023-09-08T07:46:50.115Z,63.90
2023-09-08T07:51:53.226Z,63.34
2023-09-08T07:56:56.216Z,62.52
2023-09-08T08:02:00.589Z,62.33
2023-09-08T08:07:03.701Z,61.98
2023-09-08T08:12:07.030Z,62.07
2023-09-08T08:17:12.360Z,61.67
2023-09-08T08:22:15.422Z,61.48
2023-09-08T08:27:18.586Z,61.21
2023-09-08T08:32:23.020Z,60.94
2023-09-08T08:37:27.090Z,60.79
2023-09-08T08:42:33.653Z,60.33
2023-09-08T08:47:38.643Z,59.91
2023-09-08T08:52:42.071Z,59.53
2023-09-08T08:57:47.424Z,59.48
2023-09-08T09:03:03.625Z,59.28
2023-09-08T09:08:16.146Z,59.11
2023-09-08T09:13:19.422Z,59.15
2023-09-08T09:18:23.903Z,58.96
2023-09-08T09:23:31.162Z,58.89
2023-09-08T09:28:34.501Z,58.68
2023-09-08T09:33:39.381Z,58.63
2023-09-08T09:38:42.414Z,59.32
2023-09-08T09:43:45.901Z,59.22
2023-09-08T09:48:54.165Z,59.01
2023-09-08T09:53:59.689Z,58.88
2023-09-08T09:59:05.286Z,59.14
2023-09-08T10:04:09.948Z,59.49
2023-09-08T10:09:14.900Z,59.61
2023-09-08T10:14:19.682Z,59.98
2023-09-08T10:19:25.563Z,60.92
2023-09-08T10:24:43.110Z,60.82
2023-09-08T10:29:55.371Z,61.22
2023-09-08T10:35:02.010Z,61.11
2023-09-08T10:40:25.125Z,61.62
2023-09-08T10:45:28.365Z,61.42
2023-09-08T10:50:38.043Z,61.73
2023-09-08T10:55:54.114Z,61.51
2023-09-08T11:01:05.497Z,61.29
2023-09-08T11:06:10.689Z,61.36
2023-09-08T11:11:14.904Z,61.58
2023-09-08T11:16:22.778Z,61.77
2023-09-08T11:21:28.117Z,62.15
2023-09-08T11:26:31.134Z,62.04
2023-09-08T11:31:35.827Z,62.04
2023-09-08T11:36:40.415Z,62.27
2023-09-08T11:41:43.754Z,62.37
2023-09-08T11:46:47.363Z,62.34
2023-09-08T11:51:52.005Z,62.45
2023-09-08T11:56:55.791Z,62.48
2023-09-08T12:01:59.490Z,62.47
2023-09-08T12:07:04.127Z,62.53
2023-09-08T12:12:14.569Z,62.16
2023-09-08T12:17:19.202Z,61.70
2023-09-08T12:22:23.885Z,61.72
2023-09-08T12:27:27.117Z,62.17
2023-09-08T12:32:32.364Z,62.15
2023-09-08T12:37:37.261Z,62.03
2023-09-08T12:42:41.705Z,62.28
2023-09-08T12:47:50.094Z,61.77
2023-09-08T12:52:54.553Z,62.05
2023-09-08T12:57:58.463Z,62.19
2023-09-08T13:03:03.089Z,62.26
2023-09-08T13:08:07.817Z,61.65
2023-09-08T13:13:10.881Z,62.21
2023-09-08T13:18:14.105Z,62.36
2023-09-08T13:23:18.541Z,61.58
2023-09-08T13:28:21.426Z,61.75
2023-09-08T13:33:24.381Z,62.04
2023-09-08T13:38:31.760Z,61.76
2023-09-08T13:43:34.790Z,61.26
2023-09-08T13:48:39.041Z,61.04
2023-09-08T13:53:47.332Z,61.07
2023-09-08T13:58:52.028Z,60.78
2023-09-08T14:04:04.039Z,60.80
2023-09-08T14:14:20.933Z,60.60
2023-09-08T14:19:23.912Z,60.09
2023-09-08T14:24:28.173Z,59.86
2023-09-08T14:29:31.080Z,59.65
2023-09-08T14:34:33.900Z,58.59
2023-09-08T14:39:38.085Z,58.47
2023-09-08T14:44:41.000Z,58.29
2023-09-08T14:49:43.901Z,58.35
2023-09-08T14:54:55.675Z,57.34
2023-09-08T14:59:58.830Z,57.43
2023-09-08T15:05:01.720Z,56.83
2023-09-08T15:10:06.530Z,56.78
2023-09-08T15:15:10.549Z,56.35
2023-09-08T15:20:14.384Z,55.88
2023-09-08T15:25:18.917Z,55.78
2023-09-08T15:30:21.936Z,55.38
2023-09-08T15:35:24.718Z,55.27
2023-09-08T15:40:28.946Z,55.33
2023-09-08T15:45:31.861Z,54.86
2023-09-08T15:50:34.802Z,55.06
2023-09-08T15:55:38.932Z,54.44
2023-09-08T16:00:43.062Z,54.41
2023-09-08T16:05:45.877Z,54.33
2023-09-08T16:10:50.213Z,54.21
2023-09-08T16:15:53.071Z,52.86
2023-09-08T16:20:55.933Z,52.47
2023-09-08T16:26:00.238Z,51.81
2023-09-08T16:31:06.711Z,51.63
2023-09-08T16:36:10.307Z,51.59
2023-09-08T16:41:14.592Z,52.10
2023-09-08T16:46:17.815Z,51.90
2023-09-08T16:51:20.583Z,51.83
2023-09-08T16:56:24.698Z,52.49
2023-09-08T17:01:27.815Z,52.79
2023-09-08T17:06:31.152Z,53.23
2023-09-08T17:11:38.222Z,53.09
2023-09-08T17:16:41.280Z,53.14
2023-09-08T17:21:44.300Z,53.30
2023-09-08T17:26:49.490Z,53.35
2023-09-08T17:31:52.351Z,53.56
2023-09-08T17:36:57.135Z,53.31
2023-09-08T17:42:01.255Z,53.34
2023-09-08T17:47:06.923Z,53.49
2023-09-08T17:52:09.742Z,53.65
2023-09-08T17:57:14.010Z,53.95
2023-09-08T18:02:16.870Z,53.62
2023-09-08T18:07:20.099Z,53.81
2023-09-08T18:12:24.448Z,53.99
2023-09-08T18:17:28.358Z,53.90
2023-09-08T18:22:31.475Z,54.35
2023-09-08T18:27:35.866Z,52.85
2023-09-08T18:32:38.790Z,51.93
2023-09-08T18:37:42.543Z,51.04
2023-09-08T18:42:46.756Z,51.65
2023-09-08T18:47:50.076Z,52.41
2023-09-08T18:52:55.737Z,52.26
2023-09-08T18:57:59.974Z,51.91
2023-09-08T19:03:02.999Z,52.00
2023-09-08T19:08:05.988Z,51.22
2023-09-08T19:13:10.206Z,50.95
2023-09-08T19:18:13.376Z,51.00
2023-09-08T19:23:16.234Z,51.10
2023-09-08T19:28:20.392Z,50.91
2023-09-08T19:33:23.438Z,51.50
2023-09-08T19:38:26.316Z,50.89
2023-09-08T19:43:30.402Z,51.16
2023-09-08T19:48:35.478Z,51.05
2023-09-08T19:53:38.699Z,50.55
2023-09-08T19:58:43.502Z,50.73
2023-09-08T20:03:46.459Z,50.98
2023-09-08T20:08:49.352Z,50.86
2023-09-08T20:13:55.088Z,51.05
2023-09-08T20:18:57.905Z,51.25
2023-09-08T20:24:02.625Z,50.65
2023-09-08T20:29:06.890Z,50.46
2023-09-08T20:34:15.404Z,50.76
2023-09-08T20:39:18.305Z,50.77
2023-09-08T20:44:22.668Z,50.92
2023-09-08T20:49:25.666Z,50.96
2023-09-08T20:54:29.685Z,50.92
2023-09-08T20:59:34.308Z,50.84
2023-09-08T21:04:37.185Z,50.73
2023-09-08T21:09:40.271Z,51.19
2023-09-08T21:14:44.745Z,50.74
2023-09-08T21:19:47.759Z,51.35
2023-09-08T21:24:50.559Z,51.36
2023-09-08T21:29:56.251Z,51.24
2023-09-08T21:34:59.139Z,50.95
2023-09-08T21:40:02.444Z,51.17
2023-09-08T21:45:08.005Z,50.94
2023-09-08T21:50:11.337Z,51.00
2023-09-08T21:55:14.364Z,51.33
2023-09-08T22:00:22.020Z,51.08
2023-09-08T22:05:25.073Z,51.08
2023-09-08T22:10:27.988Z,51.28
2023-09-08T22:15:32.244Z,51.08
2023-09-08T22:20:35.186Z,50.66
2023-09-08T22:25:37.923Z,50.75
2023-09-08T22:30:42.154Z,51.09
2023-09-08T22:35:44.906Z,51.02
2023-09-08T22:40:47.756Z,51.28
2023-09-08T22:45:52.293Z,51.25
2023-09-08T22:50:55.562Z,51.37
2023-09-08T22:55:58.528Z,52.12
2023-09-08T23:01:02.712Z,51.67
2023-09-08T23:06:05.638Z,51.81
2023-09-08T23:11:08.443Z,51.90
2023-09-08T23:16:14.611Z,52.01
2023-09-08T23:21:17.375Z,51.58
2023-09-08T23:26:20.184Z,52.07
2023-09-08T23:31:24.450Z,51.85
2023-09-08T23:36:27.595Z,52.10
2023-09-08T23:41:30.506Z,52.40
2023-09-08T23:46:34.917Z,52.14
2023-09-08T23:51:38.423Z,52.62
2023-09-08T23:56:41.316Z,52.82
